Observation data for Silverton on 10/13/2019      Previous  Date       Current Mesonet Observations  Soil Data  Daily Summary Page  Observations in Plain Language
KSVS 130500Z 22010KT 10/M01 A2998 RMK A01 T01041012  RH  045%=      5-min Rain = 0
KSVS 130505Z 22009KT 11/M01 A2997 RMK A01 T01061012  RH  044%=      5-min Rain = 0
KSVS 130510Z 22009KT 11/M01 A2997 RMK A01 T01071011  RH  044%=      5-min Rain = 0
KSVS 130515Z 22009KT 11/M01 A2997 RMK A01 T01081010  RH  044%=      5-min Rain = 0
KSVS 130520Z 22010KT 11/M01 A2997 RMK A01 T01091009  RH  044%=      5-min Rain = 0
KSVS 130525Z 22010KT 11/M01 A2997 RMK A01 T01091008  RH  045%=      5-min Rain = 0
KSVS 130530Z 22010KT 11/M01 A2997 RMK A01 T01111008  RH  044%=      5-min Rain = 0
KSVS 130535Z 22010KT 11/M01 A2997 RMK A01 T01121007  RH  044%=      5-min Rain = 0
KSVS 130540Z 22011KT 11/M01 A2997 RMK A01 T01141007  RH  043%=      5-min Rain = 0
KSVS 130545Z 22010KT 11/M01 A2996 RMK A01 T01131006  RH  044%=      5-min Rain = 0
KSVS 130550Z 22011KT 11/M01 A2996 RMK A01 T01131006  RH  044%=      5-min Rain = 0
KSVS 130555Z 22010KT 11/M01 A2996 RMK A01 T01121006  RH  045%=      5-min Rain = 0
KSVS 130600Z 22009KT 11/M01 A2996 RMK A01 T01081005  RH  046%=      5-min Rain = 0
KSVS 130605Z 23009KT 11/M00 A2996 RMK A01 T01051004  RH  047%=      5-min Rain = 0
KSVS 130610Z 23009KT 10/M00 A2996 RMK A01 T01041003  RH  048%=      5-min Rain = 0
KSVS 130615Z 23009KT 10/M00 A2996 RMK A01 T01021003  RH  049%=      5-min Rain = 0
KSVS 130620Z 23009KT 10/M00 A2996 RMK A01 T01021002  RH  049%=      5-min Rain = 0
KSVS 130625Z 24010KT 10/M00 A2996 RMK A01 T01021001  RH  049%=      5-min Rain = 0
KSVS 130630Z 23010KT 10/00 A2996 RMK A01 T010300-0  RH  049%=      5-min Rain = 0
KSVS 130635Z 24010KT 10/00 A2996 RMK A01 T01020000  RH  050%=      5-min Rain = 0
KSVS 130640Z 24010KT 10/00 A2996 RMK A01 T01010000  RH  050%=      5-min Rain = 0
KSVS 130645Z 24010KT 10/00 A2996 RMK A01 T01010000  RH  050%=      5-min Rain = 0
KSVS 130650Z 24009KT 10/00 A2996 RMK A01 T01020000  RH  050%=      5-min Rain = 0
KSVS 130655Z 25009KT 10/00 A2996 RMK A01 T01000001  RH  051%=      5-min Rain = 0
KSVS 130700Z 25008KT 10/00 A2996 RMK A01 T00970001  RH  052%=      5-min Rain = 0
KSVS 130705Z 24008KT 10/00 A2996 RMK A01 T00950002  RH  053%=      5-min Rain = 0
KSVS 130710Z 25007KT 09/00 A2997 RMK A01 T00930003  RH  054%=      5-min Rain = 0
KSVS 130715Z 25007KT 09/00 A2997 RMK A01 T00920003  RH  054%=      5-min Rain = 0
KSVS 130720Z 25008KT 09/00 A2997 RMK A01 T00910004  RH  055%=      5-min Rain = 0
KSVS 130725Z 24008KT 09/00 A2997 RMK A01 T00920003  RH  055%=      5-min Rain = 0
KSVS 130730Z 24008KT 09/00 A2997 RMK A01 T00920003  RH  054%=      5-min Rain = 0
KSVS 130735Z 24008KT 09/00 A2997 RMK A01 T00920003  RH  055%=      5-min Rain = 0
KSVS 130740Z 24008KT 09/00 A2997 RMK A01 T00920004  RH  055%=      5-min Rain = 0
KSVS 130745Z 24009KT 09/00 A2997 RMK A01 T00940004  RH  054%=      5-min Rain = 0
KSVS 130750Z 24010KT 10/00 A2997 RMK A01 T00960004  RH  053%=      5-min Rain = 0
KSVS 130755Z 24010KT 10/00 A2997 RMK A01 T00970004  RH  053%=      5-min Rain = 0
KSVS 130800Z 24011KT 10/00 A2996 RMK A01 T00980004  RH  053%=      5-min Rain = 0
KSVS 130805Z 24011KT 10/00 A2996 RMK A01 T01000004  RH  052%=      5-min Rain = 0
KSVS 130810Z 24011KT 10/00 A2996 RMK A01 T00990004  RH  052%=      5-min Rain = 0
KSVS 130815Z 24011KT 10/00 A2996 RMK A01 T01000004  RH  052%=      5-min Rain = 0
KSVS 130820Z 24012KT 10/00 A2996 RMK A01 T01010004  RH  052%=      5-min Rain = 0
KSVS 130825Z 24012KT 10/00 A2996 RMK A01 T01030004  RH  051%=      5-min Rain = 0
KSVS 130830Z 24012KT 10/00 A2996 RMK A01 T01040004  RH  051%=      5-min Rain = 0
KSVS 130835Z 24012KT 10/01 A2996 RMK A01 T01040005  RH  051%=      5-min Rain = 0
KSVS 130840Z 24011KT 10/01 A2996 RMK A01 T01030005  RH  051%=      5-min Rain = 0
KSVS 130845Z 23012KT 10/01 A2995 RMK A01 T01030005  RH  051%=      5-min Rain = 0
KSVS 130850Z 23012KT 10/01 A2995 RMK A01 T01030005  RH  051%=      5-min Rain = 0
KSVS 130855Z 23012KT 10/01 A2995 RMK A01 T01020005  RH  052%=      5-min Rain = 0
KSVS 130900Z 23011KT 10/01 A2995 RMK A01 T01030005  RH  051%=      5-min Rain = 0
KSVS 130905Z 24010KT 10/01 A2995 RMK A01 T01020005  RH  052%=      5-min Rain = 0
KSVS 130910Z 24010KT 10/01 A2995 RMK A01 T01000006  RH  053%=      5-min Rain = 0
KSVS 130915Z 24011KT 10/01 A2995 RMK A01 T00990006  RH  053%=      5-min Rain = 0
KSVS 130920Z 24010KT 10/01 A2995 RMK A01 T00980007  RH  054%=      5-min Rain = 0
KSVS 130925Z 24010KT 10/01 A2995 RMK A01 T00980007  RH  054%=      5-min Rain = 0
KSVS 130930Z 24011KT 10/01 A2995 RMK A01 T00990007  RH  053%=      5-min Rain = 0
KSVS 130935Z 24011KT 10/01 A2994 RMK A01 T01000007  RH  053%=      5-min Rain = 0
KSVS 130940Z 24011KT 10/01 A2994 RMK A01 T01010007  RH  053%=      5-min Rain = 0
KSVS 130945Z 24011KT 10/01 A2995 RMK A01 T01000007  RH  053%=      5-min Rain = 0
KSVS 130950Z 24011KT 10/01 A2995 RMK A01 T01000008  RH  053%=      5-min Rain = 0
KSVS 130955Z 25011KT 10/01 A2995 RMK A01 T00990008  RH  054%=      5-min Rain = 0
KSVS 131000Z 24011KT 10/01 A2995 RMK A01 T00970009  RH  055%=      5-min Rain = 0
KSVS 131005Z 24012KT 10/01 A2994 RMK A01 T00960009  RH  055%=      5-min Rain = 0
KSVS 131010Z 24012KT 10/01 A2994 RMK A01 T00960009  RH  055%=      5-min Rain = 0
KSVS 131015Z 24012KT 10/01 A2994 RMK A01 T00960009  RH  055%=      5-min Rain = 0
KSVS 131020Z 24012KT 10/01 A2994 RMK A01 T00960009  RH  055%=      5-min Rain = 0
KSVS 131025Z 24011KT 10/01 A2994 RMK A01 T00950010  RH  056%=      5-min Rain = 0
KSVS 131030Z 24011KT 10/01 A2994 RMK A01 T00950010  RH  056%=      5-min Rain = 0
KSVS 131035Z 24012KT 10/01 A2994 RMK A01 T00960010  RH  056%=      5-min Rain = 0
KSVS 131040Z 23012KT 10/01 A2994 RMK A01 T00960010  RH  056%=      5-min Rain = 0
KSVS 131045Z 24011KT 10/01 A2994 RMK A01 T00950010  RH  056%=      5-min Rain = 0
KSVS 131050Z 24009KT 09/01 A2994 RMK A01 T00920011  RH  057%=      5-min Rain = 0
KSVS 131055Z 24010KT 09/01 A2994 RMK A01 T00900011  RH  058%=      5-min Rain = 0
KSVS 131100Z 24010KT 09/01 A2994 RMK A01 T00890011  RH  059%=      5-min Rain = 0
KSVS 131105Z 24010KT 09/01 A2994 RMK A01 T00890011  RH  059%=      5-min Rain = 0
KSVS 131110Z 24010KT 09/01 A2994 RMK A01 T00870012  RH  060%=      5-min Rain = 0
KSVS 131115Z 24011KT 09/01 A2994 RMK A01 T00870012  RH  060%=      5-min Rain = 0
KSVS 131120Z 24011KT 09/01 A2994 RMK A01 T00870012  RH  060%=      5-min Rain = 0
KSVS 131125Z 25011KT 09/01 A2994 RMK A01 T00890012  RH  059%=      5-min Rain = 0
KSVS 131130Z 24010KT 09/01 A2994 RMK A01 T00900012  RH  059%=      5-min Rain = 0
KSVS 131135Z 24010KT 09/01 A2994 RMK A01 T00890012  RH  060%=      5-min Rain = 0
KSVS 131140Z 24010KT 09/01 A2994 RMK A01 T00860013  RH  061%=      5-min Rain = 0
KSVS 131145Z 24010KT 09/01 A2994 RMK A01 T00850013  RH  062%=      5-min Rain = 0
KSVS 131150Z 24010KT 09/01 A2994 RMK A01 T00850014  RH  062%=      5-min Rain = 0
KSVS 131155Z 24010KT 09/01 A2994 RMK A01 T00850014  RH  062%=      5-min Rain = 0
KSVS 131200Z 25008KT 08/01 A2994 RMK A01 T00830014  RH  063%=      5-min Rain = 0
KSVS 131205Z 25007KT 08/01 A2994 RMK A01 T00810014  RH  064%=      5-min Rain = 0
KSVS 131210Z 25008KT 08/02 A2994 RMK A01 T00790015  RH  065%=      5-min Rain = 0
KSVS 131215Z 25007KT 08/02 A2995 RMK A01 T00780015  RH  065%=      5-min Rain = 0
KSVS 131220Z 25008KT 08/02 A2994 RMK A01 T00780015  RH  065%=      5-min Rain = 0
KSVS 131225Z 25008KT 08/02 A2994 RMK A01 T00790016  RH  065%=      5-min Rain = 0
KSVS 131230Z 24009KT 08/02 A2994 RMK A01 T00800016  RH  065%=      5-min Rain = 0
KSVS 131235Z 24009KT 08/02 A2994 RMK A01 T00790017  RH  066%=      5-min Rain = 0
KSVS 131240Z 24009KT 08/02 A2995 RMK A01 T00780017  RH  066%=      5-min Rain = 0
KSVS 131245Z 23010KT 08/02 A2995 RMK A01 T00780018  RH  067%=      5-min Rain = 0
KSVS 131250Z 24011KT 08/02 A2994 RMK A01 T00810018  RH  065%=      5-min Rain = 0
KSVS 131255Z 24011KT 08/02 A2994 RMK A01 T00830018  RH  065%=      5-min Rain = 0
KSVS 131300Z 24009KT 08/02 A2995 RMK A01 T00820019  RH  065%=      5-min Rain = 0
KSVS 131305Z 24009KT 08/02 A2995 RMK A01 T00830020  RH  065%=      5-min Rain = 0
KSVS 131310Z 25008KT 09/02 A2995 RMK A01 T00860021  RH  064%=      5-min Rain = 0
KSVS 131315Z 25009KT 09/02 A2995 RMK A01 T00900022  RH  063%=      5-min Rain = 0
KSVS 131320Z 24009KT 09/02 A2994 RMK A01 T00940022  RH  062%=      5-min Rain = 0
KSVS 131325Z 25008KT 10/02 A2995 RMK A01 T00980024  RH  061%=      5-min Rain = 0
KSVS 131330Z 25008KT 10/03 A2995 RMK A01 T01020025  RH  060%=      5-min Rain = 0
KSVS 131335Z 25008KT 11/03 A2995 RMK A01 T01050026  RH  059%=      5-min Rain = 0
KSVS 131340Z 25009KT 11/03 A2995 RMK A01 T01090027  RH  058%=      5-min Rain = 0
KSVS 131345Z 25009KT 11/03 A2995 RMK A01 T01140027  RH  056%=      5-min Rain = 0
KSVS 131350Z 25010KT 12/03 A2995 RMK A01 T01190028  RH  055%=      5-min Rain = 0
KSVS 131355Z 26011KT 12/03 A2996 RMK A01 T01220029  RH  054%=      5-min Rain = 0
KSVS 131400Z 26010KT 12/03 A2996 RMK A01 T01240030  RH  054%=      5-min Rain = 0
KSVS 131405Z 26011KT 12/03 A2996 RMK A01 T01240030  RH  054%=      5-min Rain = 0
KSVS 131410Z 26011KT 12/03 A2996 RMK A01 T01230031  RH  054%=      5-min Rain = 0
KSVS 131415Z 26011KT 12/03 A2996 RMK A01 T01240033  RH  055%=      5-min Rain = 0
KSVS 131420Z 26010G15KT 13/03 A2996 RMK A01 T01270034  RH  054%=      5-min Rain = 0
KSVS 131425Z 26011KT 13/04 A2996 RMK A01 T01290035  RH  054%=      5-min Rain = 0
KSVS 131430Z 26012KT 14/04 A2996 RMK A01 T01350036  RH  052%=      5-min Rain = 0
KSVS 131435Z 26011G16KT 14/04 A2996 RMK A01 T01390038  RH  051%=      5-min Rain = 0
KSVS 131440Z 26012KT 14/04 A2996 RMK A01 T01430037  RH  050%=      5-min Rain = 0
KSVS 131445Z 27012KT 15/04 A2996 RMK A01 T01460038  RH  049%=      5-min Rain = 0
KSVS 131450Z 27011KT 15/04 A2996 RMK A01 T01510040  RH  048%=      5-min Rain = 0
KSVS 131455Z 28010KT 16/04 A2997 RMK A01 T01560042  RH  048%=      5-min Rain = 0
KSVS 131500Z 28011KT 16/04 A2997 RMK A01 T01610042  RH  046%=      5-min Rain = 0
KSVS 131505Z 29010KT 16/04 A2997 RMK A01 T01620040  RH  045%=      5-min Rain = 0
KSVS 131510Z 29008KT 17/05 A2998 RMK A01 T01680046  RH  045%=      5-min Rain = 0
KSVS 131515Z 30008KT 17/05 A2998 RMK A01 T01740045  RH  044%=      5-min Rain = 0
KSVS 131520Z 29010KT 18/04 A2998 RMK A01 T01770043  RH  042%=      5-min Rain = 0
KSVS 131525Z 30010KT 18/04 A2998 RMK A01 T01790044  RH  042%=      5-min Rain = 0
KSVS 131530Z 30011KT 18/04 A2998 RMK A01 T01830043  RH  040%=      5-min Rain = 0
KSVS 131535Z 30011KT 18/04 A2998 RMK A01 T01830042  RH  040%=      5-min Rain = 0
KSVS 131540Z 29009KT 18/04 A2998 RMK A01 T01840043  RH  040%=      5-min Rain = 0
KSVS 131545Z 29008KT 19/05 A2998 RMK A01 T01900045  RH  039%=      5-min Rain = 0
KSVS 131550Z 30007KT 20/05 A2998 RMK A01 T01950049  RH  039%=      5-min Rain = 0
KSVS 131555Z 31008KT 20/04 A2998 RMK A01 T01960043  RH  037%=      5-min Rain = 0
KSVS 131600Z 30007KT 19/04 A2998 RMK A01 T01940042  RH  037%=      5-min Rain = 0
KSVS 131605Z 29006KT 20/05 A2998 RMK A01 T01970045  RH  037%=      5-min Rain = 0
KSVS 131610Z 29007KT 20/05 A2998 RMK A01 T02020045  RH  036%=      5-min Rain = 0
KSVS 131615Z 30007KT 21/04 A2998 RMK A01 T02060044  RH  035%=      5-min Rain = 0
KSVS 131620Z 31006KT 21/04 A2998 RMK A01 T02070042  RH  035%=      5-min Rain = 0
KSVS 131625Z 29005KT 21/04 A2998 RMK A01 T02100043  RH  034%=      5-min Rain = 0
KSVS 131630Z 29006KT 21/04 A2998 RMK A01 T02110043  RH  034%=      5-min Rain = 0
KSVS 131635Z 30005KT 21/04 A2998 RMK A01 T02140044  RH  034%=      5-min Rain = 0
KSVS 131640Z 28005KT 22/04 A2998 RMK A01 T02170044  RH  033%=      5-min Rain = 0
KSVS 131645Z 30005KT 22/04 A2998 RMK A01 T02180044  RH  033%=      5-min Rain = 0
KSVS 131650Z 31003KT 22/04 A2998 RMK A01 T02230044  RH  032%=      5-min Rain = 0
KSVS 131655Z 30006KT 23/04 A2998 RMK A01 T02270043  RH  031%=      5-min Rain = 0
KSVS 131700Z 31006KT 23/04 A2998 RMK A01 T02270042  RH  031%=      5-min Rain = 0
KSVS 131705Z 31006G11KT 23/04 A2998 RMK A01 T02250039  RH  030%=      5-min Rain = 0
KSVS 131710Z 30005KT 23/04 A2998 RMK A01 T02280042  RH  030%=      5-min Rain = 0
KSVS 131715Z 28004KT 23/04 A2998 RMK A01 T02310042  RH  030%=      5-min Rain = 0
KSVS 131720Z 30005KT 23/04 A2998 RMK A01 T02310038  RH  029%=      5-min Rain = 0
KSVS 131725Z 30004KT 23/04 A2998 RMK A01 T02330037  RH  028%=      5-min Rain = 0
KSVS 131730Z 29004KT 24/04 A2998 RMK A01 T02370042  RH  029%=      5-min Rain = 0
KSVS 131735Z 23003KT 24/04 A2998 RMK A01 T02390042  RH  028%=      5-min Rain = 0
KSVS 131740Z 28004KT 24/04 A2998 RMK A01 T02420041  RH  028%=      5-min Rain = 0
KSVS 131745Z 30004KT 24/03 A2997 RMK A01 T02410034  RH  026%=      5-min Rain = 0
KSVS 131750Z 29004KT 24/03 A2997 RMK A01 T02410034  RH  026%=      5-min Rain = 0
KSVS 131755Z 29004KT 24/04 A2997 RMK A01 T02440037  RH  026%=      5-min Rain = 0
KSVS 131800Z 29003KT 24/03 A2997 RMK A01 T02430034  RH  026%=      5-min Rain = 0
KSVS 131805Z 30003KT 25/04 A2997 RMK A01 T02460036  RH  026%=      5-min Rain = 0
KSVS 131810Z 26001KT 25/04 A2997 RMK A01 T02500040  RH  026%=      5-min Rain = 0
KSVS 131815Z 24003KT 25/03 A2997 RMK A01 T02490031  RH  025%=      5-min Rain = 0
KSVS 131820Z 19001KT 26/04 A2997 RMK A01 T02570042  RH  025%=      5-min Rain = 0
KSVS 131825Z 16002KT 26/03 A2997 RMK A01 T02560032  RH  024%=      5-min Rain = 0
KSVS 131830Z 28002KT 26/04 A2997 RMK A01 T02600040  RH  025%=      5-min Rain = 0
KSVS 131835Z 19003KT 26/03 A2996 RMK A01 T02590028  RH  023%=      5-min Rain = 0
KSVS 131840Z 02003KT 26/03 A2996 RMK A01 T02590030  RH  023%=      5-min Rain = 0
KSVS 131845Z 36008G13KT 26/05 A2996 RMK A01 T02590049  RH  027%=      5-min Rain = 0
KSVS 131850Z 00008KT 25/06 A2996 RMK A01 T02530063  RH  030%=      5-min Rain = 0
KSVS 131855Z 00007KT 25/06 A2996 RMK A01 T02510061  RH  030%=      5-min Rain = 0
KSVS 131900Z 03006G11KT 25/06 A2996 RMK A01 T02490062  RH  031%=      5-min Rain = 0
KSVS 131905Z 05006KT 25/06 A2996 RMK A01 T02500063  RH  031%=      5-min Rain = 0
KSVS 131910Z 08004KT 25/06 A2995 RMK A01 T02510057  RH  029%=      5-min Rain = 0
KSVS 131915Z 08006KT 25/06 A2995 RMK A01 T02530058  RH  029%=      5-min Rain = 0
KSVS 131920Z 06006KT 26/06 A2995 RMK A01 T02570060  RH  029%=      5-min Rain = 0
KSVS 131925Z 09006KT 25/06 A2995 RMK A01 T02530057  RH  029%=      5-min Rain = 0
KSVS 131930Z 10005KT 25/06 A2995 RMK A01 T02530056  RH  029%=      5-min Rain = 0
KSVS 131935Z 09005KT 26/05 A2994 RMK A01 T02560050  RH  027%=      5-min Rain = 0
KSVS 131940Z 13004KT 26/05 A2994 RMK A01 T02600047  RH  026%=      5-min Rain = 0
KSVS 131945Z 13006KT 26/05 A2994 RMK A01 T02630047  RH  025%=      5-min Rain = 0
KSVS 131950Z 12006KT 26/05 A2993 RMK A01 T02610046  RH  026%=      5-min Rain = 0
KSVS 131955Z 11006KT 26/05 A2993 RMK A01 T02600051  RH  027%=      5-min Rain = 0
KSVS 132000Z 11006KT 26/06 A2993 RMK A01 T02620056  RH  027%=      5-min Rain = 0
KSVS 132005Z 09007KT 26/05 A2993 RMK A01 T02600051  RH  027%=      5-min Rain = 0
KSVS 132010Z 08005KT 26/05 A2993 RMK A01 T02600051  RH  027%=      5-min Rain = 0
KSVS 132015Z 09004KT 26/05 A2993 RMK A01 T02620049  RH  026%=      5-min Rain = 0
KSVS 132020Z 09004KT 26/05 A2993 RMK A01 T02630050  RH  026%=      5-min Rain = 0
KSVS 132025Z 12004KT 26/05 A2993 RMK A01 T02630050  RH  026%=      5-min Rain = 0
KSVS 132030Z 12004KT 26/05 A2993 RMK A01 T02630051  RH  026%=      5-min Rain = 0
KSVS 132035Z 13005KT 27/05 A2992 RMK A01 T02650050  RH  026%=      5-min Rain = 0
KSVS 132040Z 11003KT 26/05 A2992 RMK A01 T02620047  RH  026%=      5-min Rain = 0
KSVS 132045Z 15005KT 27/05 A2992 RMK A01 T02720051  RH  025%=      5-min Rain = 0
KSVS 132050Z 13002KT 27/05 A2992 RMK A01 T02700048  RH  025%=      5-min Rain = 0
KSVS 132055Z 16004G9KT 27/05 A2992 RMK A01 T02710048  RH  024%=      5-min Rain = 0
KSVS 132100Z 14003KT 27/05 A2992 RMK A01 T02720047  RH  024%=      5-min Rain = 0
KSVS 132105Z 14003KT 27/04 A2992 RMK A01 T02740044  RH  023%=      5-min Rain = 0
KSVS 132110Z 13005KT 27/04 A2992 RMK A01 T02720042  RH  023%=      5-min Rain = 0
KSVS 132115Z 19002KT 27/04 A2992 RMK A01 T02740039  RH  023%=      5-min Rain = 0
KSVS 132120Z 13003KT 27/02 A2992 RMK A01 T02740022  RH  020%=      5-min Rain = 0
KSVS 132125Z 14004G10KT 28/03 A2992 RMK A01 T02750034  RH  022%=      5-min Rain = 0
KSVS 132130Z 15005KT 27/04 A2992 RMK A01 T02720044  RH  024%=      5-min Rain = 0
KSVS 132135Z 13005G10KT 27/05 A2992 RMK A01 T02690046  RH  024%=      5-min Rain = 0
KSVS 132140Z 13008KT 27/04 A2992 RMK A01 T02650041  RH  024%=      5-min Rain = 0
KSVS 132145Z 11006KT 27/05 A2992 RMK A01 T02660045  RH  025%=      5-min Rain = 0
KSVS 132150Z 13007KT 27/04 A2992 RMK A01 T02660043  RH  024%=      5-min Rain = 0
KSVS 132155Z 13007KT 27/04 A2992 RMK A01 T02680042  RH  024%=      5-min Rain = 0
KSVS 132200Z 13008KT 27/03 A2992 RMK A01 T02680033  RH  023%=      5-min Rain = 0
KSVS 132205Z 13009KT 27/04 A2992 RMK A01 T02680041  RH  024%=      5-min Rain = 0
KSVS 132210Z 14009KT 27/04 A2992 RMK A01 T02670042  RH  024%=      5-min Rain = 0
KSVS 132215Z 14008KT 27/04 A2992 RMK A01 T02670042  RH  024%=      5-min Rain = 0
KSVS 132220Z 13007KT 27/04 A2992 RMK A01 T02680043  RH  024%=      5-min Rain = 0
KSVS 132225Z 13008KT 27/04 A2992 RMK A01 T02680042  RH  024%=      5-min Rain = 0
KSVS 132230Z 12008KT 27/04 A2992 RMK A01 T02660043  RH  024%=      5-min Rain = 0
KSVS 132235Z 13008KT 26/04 A2992 RMK A01 T02640041  RH  024%=      5-min Rain = 0
KSVS 132240Z 13008KT 27/04 A2993 RMK A01 T02650040  RH  024%=      5-min Rain = 0
KSVS 132245Z 13007KT 27/04 A2993 RMK A01 T02650043  RH  024%=      5-min Rain = 0
KSVS 132250Z 14007KT 26/04 A2993 RMK A01 T02630041  RH  024%=      5-min Rain = 0
KSVS 132255Z 13007KT 26/04 A2993 RMK A01 T02610038  RH  024%=      5-min Rain = 0
KSVS 132300Z 13006KT 26/04 A2993 RMK A01 T02600044  RH  025%=      5-min Rain = 0
KSVS 132305Z 13007KT 26/05 A2993 RMK A01 T02590045  RH  026%=      5-min Rain = 0
KSVS 132310Z 11007KT 26/05 A2993 RMK A01 T02570046  RH  026%=      5-min Rain = 0
KSVS 132315Z 10007KT 25/05 A2993 RMK A01 T02530047  RH  027%=      5-min Rain = 0
KSVS 132320Z 10007KT 25/05 A2993 RMK A01 T02490046  RH  028%=      5-min Rain = 0
KSVS 132325Z 10005KT 25/05 A2993 RMK A01 T02470050  RH  029%=      5-min Rain = 0
KSVS 132330Z 10005KT 24/05 A2993 RMK A01 T02440052  RH  030%=      5-min Rain = 0
KSVS 132335Z 09005KT 24/05 A2993 RMK A01 T02400053  RH  030%=      5-min Rain = 0
KSVS 132340Z 09005KT 24/05 A2993 RMK A01 T02360054  RH  031%=      5-min Rain = 0
KSVS 132345Z 09005KT 23/06 A2993 RMK A01 T02300057  RH  033%=      5-min Rain = 0
KSVS 132350Z 09005KT 23/06 A2993 RMK A01 T02250059  RH  035%=      5-min Rain = 0
KSVS 132355Z 09005KT 22/06 A2993 RMK A01 T02190060  RH  036%=      5-min Rain = 0
KSVS 140000Z 10007KT 21/06 A2993 RMK A01 T02100060  RH  038%=      5-min Rain = 0
KSVS 140005Z 10008KT 20/06 A2994 RMK A01 T02020059  RH  040%=      5-min Rain = 0
KSVS 140010Z 10007KT 20/06 A2994 RMK A01 T01980057  RH  041%=      5-min Rain = 0
KSVS 140015Z 11007KT 19/06 A2994 RMK A01 T01910057  RH  042%=      5-min Rain = 0
KSVS 140020Z 11007KT 19/06 A2994 RMK A01 T01870056  RH  043%=      5-min Rain = 0
KSVS 140025Z 11006KT 18/06 A2994 RMK A01 T01840055  RH  044%=      5-min Rain = 0
KSVS 140030Z 10006KT 18/06 A2994 RMK A01 T01840055  RH  044%=      5-min Rain = 0
KSVS 140035Z 10007KT 18/06 A2994 RMK A01 T01800056  RH  045%=      5-min Rain = 0
KSVS 140040Z 10007KT 17/06 A2995 RMK A01 T01730057  RH  047%=      5-min Rain = 0
KSVS 140045Z 10007KT 17/06 A2995 RMK A01 T01700057  RH  048%=      5-min Rain = 0
KSVS 140050Z 10007KT 17/06 A2995 RMK A01 T01690056  RH  048%=      5-min Rain = 0
KSVS 140055Z 10008KT 17/06 A2995 RMK A01 T01680055  RH  048%=      5-min Rain = 0
KSVS 140100Z 10007KT 17/06 A2995 RMK A01 T01660055  RH  049%=      5-min Rain = 0
KSVS 140105Z 10007KT 17/05 A2996 RMK A01 T01670054  RH  048%=      5-min Rain = 0
KSVS 140110Z 10006KT 17/05 A2996 RMK A01 T01660054  RH  049%=      5-min Rain = 0
KSVS 140115Z 10006KT 17/05 A2996 RMK A01 T01660054  RH  049%=      5-min Rain = 0
KSVS 140120Z 09006KT 17/05 A2996 RMK A01 T01680054  RH  048%=      5-min Rain = 0
KSVS 140125Z 09007KT 16/05 A2996 RMK A01 T01620054  RH  050%=      5-min Rain = 0
KSVS 140130Z 08007KT 16/05 A2996 RMK A01 T01590054  RH  051%=      5-min Rain = 0
KSVS 140135Z 08006KT 16/05 A2996 RMK A01 T01590051  RH  050%=      5-min Rain = 0
KSVS 140140Z 08006KT 16/05 A2996 RMK A01 T01550049  RH  050%=      5-min Rain = 0
KSVS 140145Z 07006KT 15/05 A2997 RMK A01 T01510048  RH  051%=      5-min Rain = 0
KSVS 140150Z 08005KT 15/05 A2997 RMK A01 T01470048  RH  053%=      5-min Rain = 0
KSVS 140155Z 09004KT 15/05 A2997 RMK A01 T01490049  RH  052%=      5-min Rain = 0
KSVS 140200Z 10005KT 16/05 A2997 RMK A01 T01570052  RH  051%=      5-min Rain = 0
KSVS 140205Z 09006KT 16/05 A2997 RMK A01 T01640052  RH  049%=      5-min Rain = 0
KSVS 140210Z 09007KT 16/05 A2997 RMK A01 T01590050  RH  049%=      5-min Rain = 0
KSVS 140215Z 09006KT 15/05 A2997 RMK A01 T01480050  RH  053%=      5-min Rain = 0
KSVS 140220Z 08007KT 15/05 A2997 RMK A01 T01480050  RH  053%=      5-min Rain = 0
KSVS 140225Z 08007KT 15/05 A2997 RMK A01 T01520049  RH  051%=      5-min Rain = 0
KSVS 140230Z 08006KT 15/05 A2997 RMK A01 T01500049  RH  052%=      5-min Rain = 0
KSVS 140235Z 09007KT 15/05 A2997 RMK A01 T01520048  RH  051%=      5-min Rain = 0
KSVS 140240Z 08007KT 17/05 A2997 RMK A01 T01650047  RH  047%=      5-min Rain = 0
KSVS 140245Z 09007KT 16/05 A2997 RMK A01 T01610046  RH  047%=      5-min Rain = 0
KSVS 140250Z 09008KT 16/05 A2997 RMK A01 T01610046  RH  047%=      5-min Rain = 0
KSVS 140255Z 09007KT 16/05 A2997 RMK A01 T01590046  RH  048%=      5-min Rain = 0
KSVS 140300Z 09004KT 16/05 A2997 RMK A01 T01570045  RH  048%=      5-min Rain = 0
KSVS 140305Z 09007KT 16/04 A2997 RMK A01 T01570044  RH  048%=      5-min Rain = 0
KSVS 140310Z 08006KT 16/04 A2996 RMK A01 T01600043  RH  047%=      5-min Rain = 0
KSVS 140315Z 08006KT 16/04 A2996 RMK A01 T01580044  RH  048%=      5-min Rain = 0
KSVS 140320Z 08005KT 15/04 A2996 RMK A01 T01540044  RH  049%=      5-min Rain = 0
KSVS 140325Z 08004KT 15/04 A2996 RMK A01 T01500044  RH  050%=      5-min Rain = 0
KSVS 140330Z 08004KT 15/04 A2996 RMK A01 T01460043  RH  051%=      5-min Rain = 0
KSVS 140335Z 09004KT 15/04 A2996 RMK A01 T01450043  RH  051%=      5-min Rain = 0
KSVS 140340Z 08003KT 15/04 A2996 RMK A01 T01450043  RH  051%=      5-min Rain = 0
KSVS 140345Z 07003KT 14/04 A2996 RMK A01 T01420041  RH  052%=      5-min Rain = 0
KSVS 140350Z 05003KT 14/04 A2996 RMK A01 T01390037  RH  051%=      5-min Rain = 0
KSVS 140355Z 06004KT 14/04 A2996 RMK A01 T01390040  RH  052%=      5-min Rain = 0
KSVS 140400Z 07003KT 14/04 A2996 RMK A01 T01380041  RH  053%=      5-min Rain = 0
KSVS 140405Z 09004KT 13/04 A2996 RMK A01 T01330041  RH  055%=      5-min Rain = 0
KSVS 140410Z 10004KT 14/04 A2996 RMK A01 T01380040  RH  053%=      5-min Rain = 0
KSVS 140415Z 11004KT 14/04 A2996 RMK A01 T01360039  RH  053%=      5-min Rain = 0
KSVS 140420Z 11003KT 13/04 A2996 RMK A01 T01340039  RH  054%=      5-min Rain = 0
KSVS 140425Z 11002KT 12/04 A2996 RMK A01 T01220040  RH  059%=      5-min Rain = 0
KSVS 140430Z 34004KT 11/04 A2996 RMK A01 T01090041  RH  064%=      5-min Rain = 0
KSVS 140435Z 34006KT 10/05 A2997 RMK A01 T00980047  RH  072%=      5-min Rain = 0
KSVS 140440Z 35006KT 10/05 A2997 RMK A01 T00970050  RH  074%=      5-min Rain = 0
KSVS 140445Z 35004KT 10/05 A2997 RMK A01 T01010052  RH  073%=      5-min Rain = 0
KSVS 140450Z 35003KT 10/05 A2997 RMK A01 T01020048  RH  071%=      5-min Rain = 0
KSVS 140455Z 33002KT 10/05 A2997 RMK A01 T01020047  RH  070%=      5-min Rain = 0

Page generated in 0.0086 seconds.